sensor_id;sensor_type;location;lat;lon;timestamp;pressure;altitude;pressure_sealevel;temperature;humidity
77799;BME280;66989;50.426;15.352;2023-04-03T00:00:31;98944.19;;;3.44;57.81
77799;BME280;66989;50.426;15.352;2023-04-03T00:02:57;98944.41;;;3.38;56.63
77799;BME280;66989;50.426;15.352;2023-04-03T00:05:22;98944.53;;;3.35;56.21
77799;BME280;66989;50.426;15.352;2023-04-03T00:07:48;98942.94;;;3.30;57.03
77799;BME280;66989;50.426;15.352;2023-04-03T00:10:15;98938.81;;;3.23;57.22
77799;BME280;66989;50.426;15.352;2023-04-03T00:12:40;98947.72;;;3.18;57.16
77799;BME280;66989;50.426;15.352;2023-04-03T00:15:06;98948.00;;;3.10;57.50
77799;BME280;66989;50.426;15.352;2023-04-03T00:17:32;98950.00;;;3.02;57.72
77799;BME280;66989;50.426;15.352;2023-04-03T00:19:58;98956.38;;;2.93;58.47
77799;BME280;66989;50.426;15.352;2023-04-03T00:22:23;98965.41;;;2.83;58.63
77799;BME280;66989;50.426;15.352;2023-04-03T00:24:48;98966.63;;;2.71;58.95
77799;BME280;66989;50.426;15.352;2023-04-03T00:27:14;98968.84;;;2.57;59.49
77799;BME280;66989;50.426;15.352;2023-04-03T00:29:40;98972.81;;;2.41;59.97
77799;BME280;66989;50.426;15.352;2023-04-03T00:32:06;98975.09;;;2.23;60.71
77799;BME280;66989;50.426;15.352;2023-04-03T00:34:31;98979.06;;;2.07;61.69
77799;BME280;66989;50.426;15.352;2023-04-03T00:36:57;98978.69;;;1.91;61.36
77799;BME280;66989;50.426;15.352;2023-04-03T00:39:22;98978.25;;;1.76;62.68
77799;BME280;66989;50.426;15.352;2023-04-03T00:41:47;98977.84;;;1.60;63.14
77799;BME280;66989;50.426;15.352;2023-04-03T00:47:13;98983.03;;;1.29;64.70
77799;BME280;66989;50.426;15.352;2023-04-03T00:49:42;98976.44;;;1.15;64.52
77799;BME280;66989;50.426;15.352;2023-04-03T00:52:12;98982.88;;;1.02;65.58
77799;BME280;66989;50.426;15.352;2023-04-03T00:54:40;98986.66;;;0.89;66.12
77799;BME280;66989;50.426;15.352;2023-04-03T00:57:08;98981.78;;;0.77;66.36
77799;BME280;66989;50.426;15.352;2023-04-03T00:59:36;98990.47;;;0.74;67.02
77799;BME280;66989;50.426;15.352;2023-04-03T01:02:04;98991.47;;;0.68;67.15
77799;BME280;66989;50.426;15.352;2023-04-03T01:04:38;98982.94;;;0.63;67.03
77799;BME280;66989;50.426;15.352;2023-04-03T01:07:08;98986.50;;;0.59;67.77
77799;BME280;66989;50.426;15.352;2023-04-03T01:09:35;98984.78;;;0.58;67.87
77799;BME280;66989;50.426;15.352;2023-04-03T01:12:18;98986.66;;;0.53;67.75
77799;BME280;66989;50.426;15.352;2023-04-03T01:14:45;98982.47;;;0.48;68.60
77799;BME280;66989;50.426;15.352;2023-04-03T01:17:36;98990.25;;;0.48;67.24
77799;BME280;66989;50.426;15.352;2023-04-03T01:20:29;98994.69;;;0.42;67.72
77799;BME280;66989;50.426;15.352;2023-04-03T01:23:18;98989.59;;;0.38;68.02
77799;BME280;66989;50.426;15.352;2023-04-03T01:25:51;98988.78;;;0.36;68.93
77799;BME280;66989;50.426;15.352;2023-04-03T01:28:30;98988.88;;;0.31;69.63
77799;BME280;66989;50.426;15.352;2023-04-03T01:33:38;98996.81;;;0.25;68.92
77799;BME280;66989;50.426;15.352;2023-04-03T01:36:04;98995.22;;;0.20;68.40
77799;BME280;66989;50.426;15.352;2023-04-03T01:38:30;99000.50;;;0.15;68.81
77799;BME280;66989;50.426;15.352;2023-04-03T01:40:56;99009.25;;;0.09;69.03
77799;BME280;66989;50.426;15.352;2023-04-03T01:43:21;99004.94;;;0.08;69.47
77799;BME280;66989;50.426;15.352;2023-04-03T01:45:47;99002.34;;;0.10;69.39
77799;BME280;66989;50.426;15.352;2023-04-03T01:48:14;98996.34;;;0.06;68.81
77799;BME280;66989;50.426;15.352;2023-04-03T01:50:40;99007.72;;;0.01;69.17
77799;BME280;66989;50.426;15.352;2023-04-03T01:53:06;99000.06;;;-0.05;69.68
77799;BME280;66989;50.426;15.352;2023-04-03T01:55:31;99000.22;;;-0.12;70.01
77799;BME280;66989;50.426;15.352;2023-04-03T01:57:57;98989.13;;;-0.20;70.23
77799;BME280;66989;50.426;15.352;2023-04-03T02:00:22;98994.38;;;-0.23;70.71
77799;BME280;66989;50.426;15.352;2023-04-03T02:02:48;98991.06;;;-0.29;71.26
77799;BME280;66989;50.426;15.352;2023-04-03T02:05:13;98995.47;;;-0.34;71.30
77799;BME280;66989;50.426;15.352;2023-04-03T02:07:39;98994.66;;;-0.37;71.43
77799;BME280;66989;50.426;15.352;2023-04-03T02:10:04;99002.56;;;-0.43;71.77
77799;BME280;66989;50.426;15.352;2023-04-03T02:12:30;99011.31;;;-0.50;72.32
77799;BME280;66989;50.426;15.352;2023-04-03T02:14:55;99001.13;;;-0.59;72.20
77799;BME280;66989;50.426;15.352;2023-04-03T02:17:21;98999.47;;;-0.62;73.20
77799;BME280;66989;50.426;15.352;2023-04-03T02:19:46;98995.09;;;-0.59;72.99
77799;BME280;66989;50.426;15.352;2023-04-03T02:22:12;99000.34;;;-0.63;73.25
77799;BME280;66989;50.426;15.352;2023-04-03T02:24:37;99000.38;;;-0.66;72.98
77799;BME280;66989;50.426;15.352;2023-04-03T02:27:04;98997.84;;;-0.67;73.67
77799;BME280;66989;50.426;15.352;2023-04-03T02:29:29;99006.59;;;-0.73;73.85
77799;BME280;66989;50.426;15.352;2023-04-03T02:31:55;99004.06;;;-0.77;74.21
77799;BME280;66989;50.426;15.352;2023-04-03T02:34:21;99006.69;;;-0.80;74.69
77799;BME280;66989;50.426;15.352;2023-04-03T02:36:46;99008.41;;;-0.79;74.84
77799;BME280;66989;50.426;15.352;2023-04-03T02:39:11;99008.47;;;-0.82;75.02
77799;BME280;66989;50.426;15.352;2023-04-03T02:41:37;99017.13;;;-0.83;74.58
77799;BME280;66989;50.426;15.352;2023-04-03T02:44:03;99011.94;;;-0.83;74.41
77799;BME280;66989;50.426;15.352;2023-04-03T02:46:29;99020.59;;;-0.86;74.27
77799;BME280;66989;50.426;15.352;2023-04-03T02:48:55;99018.13;;;-0.92;74.52
77799;BME280;66989;50.426;15.352;2023-04-03T02:51:20;99012.84;;;-0.86;74.93
77799;BME280;66989;50.426;15.352;2023-04-03T02:53:46;99018.06;;;-0.88;75.85
77799;BME280;66989;50.426;15.352;2023-04-03T02:56:11;99013.63;;;-0.81;75.67
77799;BME280;66989;50.426;15.352;2023-04-03T02:58:37;99022.34;;;-0.86;76.20
77799;BME280;66989;50.426;15.352;2023-04-03T03:01:02;99024.25;;;-0.96;76.71
77799;BME280;66989;50.426;15.352;2023-04-03T03:03:28;99021.72;;;-1.01;75.97
77799;BME280;66989;50.426;15.352;2023-04-03T03:06:11;99024.31;;;-1.01;75.01
77799;BME280;66989;50.426;15.352;2023-04-03T03:08:37;99024.38;;;-1.04;74.61
77799;BME280;66989;50.426;15.352;2023-04-03T03:11:03;99027.06;;;-1.10;74.41
77799;BME280;66989;50.426;15.352;2023-04-03T03:13:29;99037.50;;;-1.15;74.75
77799;BME280;66989;50.426;15.352;2023-04-03T03:15:55;99029.78;;;-1.18;75.09
77799;BME280;66989;50.426;15.352;2023-04-03T03:18:21;99035.91;;;-1.23;74.97
77799;BME280;66989;50.426;15.352;2023-04-03T03:20:52;99048.03;;;-1.27;nan
77799;BME280;66989;50.426;15.352;2023-04-03T03:23:18;99036.03;;;-1.32;76.09
77799;BME280;66989;50.426;15.352;2023-04-03T03:25:43;99042.13;;;-1.36;76.22
77799;BME280;66989;50.426;15.352;2023-04-03T03:28:09;99043.09;;;-1.41;75.96
77799;BME280;66989;50.426;15.352;2023-04-03T03:30:34;99050.84;;;-1.42;77.11
77799;BME280;66989;50.426;15.352;2023-04-03T03:33:00;99037.91;;;-1.41;77.25
77799;BME280;66989;50.426;15.352;2023-04-03T03:35:25;99043.91;;;-1.38;77.25
77799;BME280;66989;50.426;15.352;2023-04-03T03:37:51;99046.50;;;-1.40;77.12
77799;BME280;66989;50.426;15.352;2023-04-03T03:40:17;99046.44;;;-1.35;76.66
77799;BME280;66989;50.426;15.352;2023-04-03T03:42:42;99043.81;;;-1.32;76.88
77799;BME280;66989;50.426;15.352;2023-04-03T03:45:08;99048.16;;;-1.34;76.99
77799;BME280;66989;50.426;15.352;2023-04-03T03:47:34;99047.31;;;-1.36;76.55
77799;BME280;66989;50.426;15.352;2023-04-03T03:50:00;99050.84;;;-1.41;77.59
77799;BME280;66989;50.426;15.352;2023-04-03T03:52:26;99052.59;;;-1.44;76.72
77799;BME280;66989;50.426;15.352;2023-04-03T03:54:51;99052.63;;;-1.46;77.59
77799;BME280;66989;50.426;15.352;2023-04-03T03:57:17;99054.31;;;-1.43;77.54
77799;BME280;66989;50.426;15.352;2023-04-03T03:59:42;99058.69;;;-1.48;77.18
77799;BME280;66989;50.426;15.352;2023-04-03T04:02:10;99060.56;;;-1.56;77.95
77799;BME280;66989;50.426;15.352;2023-04-03T04:04:36;99058.81;;;-1.56;78.53
77799;BME280;66989;50.426;15.352;2023-04-03T04:07:03;99058.03;;;-1.62;78.58
77799;BME280;66989;50.426;15.352;2023-04-03T04:09:28;99062.38;;;-1.64;78.82
77799;BME280;66989;50.426;15.352;2023-04-03T04:11:54;99061.63;;;-1.71;78.25
77799;BME280;66989;50.426;15.352;2023-04-03T04:14:19;99063.34;;;-1.72;78.91
77799;BME280;66989;50.426;15.352;2023-04-03T04:16:48;99067.66;;;-1.74;79.57
77799;BME280;66989;50.426;15.352;2023-04-03T04:19:13;99069.44;;;-1.76;79.14
77799;BME280;66989;50.426;15.352;2023-04-03T04:21:39;99078.91;;;-1.78;79.08
77799;BME280;66989;50.426;15.352;2023-04-03T04:24:07;99071.19;;;-1.79;78.99
77799;BME280;66989;50.426;15.352;2023-04-03T04:26:32;99068.56;;;-1.76;79.32
77799;BME280;66989;50.426;15.352;2023-04-03T04:28:58;99085.72;;;-1.72;78.75
77799;BME280;66989;50.426;15.352;2023-04-03T04:31:25;99082.22;;;-1.65;78.72
77799;BME280;66989;50.426;15.352;2023-04-03T04:33:50;99083.84;;;-1.59;78.35
77799;BME280;66989;50.426;15.352;2023-04-03T04:36:15;99085.53;;;-1.55;78.77
77799;BME280;66989;50.426;15.352;2023-04-03T04:38:41;99090.63;;;-1.51;78.61
77799;BME280;66989;50.426;15.352;2023-04-03T04:41:06;99091.50;;;-1.50;78.96
77799;BME280;66989;50.426;15.352;2023-04-03T04:43:32;99088.06;;;-1.51;79.25
77799;BME280;66989;50.426;15.352;2023-04-03T04:46:09;99099.19;;;-1.46;78.74
77799;BME280;66989;50.426;15.352;2023-04-03T04:48:36;99102.63;;;-1.45;78.57
77799;BME280;66989;50.426;15.352;2023-04-03T04:51:03;99106.91;;;-1.44;78.05
77799;BME280;66989;50.426;15.352;2023-04-03T04:53:28;99112.97;;;-1.45;78.04
77799;BME280;66989;50.426;15.352;2023-04-03T04:55:54;99116.41;;;-1.45;78.24
77799;BME280;66989;50.426;15.352;2023-04-03T04:58:20;99115.50;;;-1.41;78.31
77799;BME280;66989;50.426;15.352;2023-04-03T05:00:45;99118.00;;;-1.34;78.53
77799;BME280;66989;50.426;15.352;2023-04-03T05:03:11;99119.66;;;-1.30;78.25
77799;BME280;66989;50.426;15.352;2023-04-03T05:05:36;99123.91;;;-1.25;78.19
77799;BME280;66989;50.426;15.352;2023-04-03T05:08:04;99127.25;;;-1.18;77.97
77799;BME280;66989;50.426;15.352;2023-04-03T05:10:30;99129.72;;;-1.12;77.66
77799;BME280;66989;50.426;15.352;2023-04-03T05:12:57;99135.66;;;-1.04;77.27
77799;BME280;66989;50.426;15.352;2023-04-03T05:15:23;99137.25;;;-0.97;77.04
77799;BME280;66989;50.426;15.352;2023-04-03T05:17:48;99132.84;;;-0.90;76.90
77799;BME280;66989;50.426;15.352;2023-04-03T05:20:13;99134.41;;;-0.78;76.58
77799;BME280;66989;50.426;15.352;2023-04-03T05:22:39;99125.69;;;-0.73;76.45
77799;BME280;66989;50.426;15.352;2023-04-03T05:25:05;99126.38;;;-0.65;76.00
77799;BME280;66989;50.426;15.352;2023-04-03T05:27:30;99127.94;;;-0.54;75.68
77799;BME280;66989;50.426;15.352;2023-04-03T05:29:56;99129.53;;;-0.46;75.10
77799;BME280;66989;50.426;15.352;2023-04-03T05:32:22;99122.50;;;-0.38;74.49
77799;BME280;66989;50.426;15.352;2023-04-03T05:34:48;99134.31;;;-0.24;74.15
77799;BME280;66989;50.426;15.352;2023-04-03T05:37:13;99137.66;;;-0.16;73.52
77799;BME280;66989;50.426;15.352;2023-04-03T05:39:39;99134.84;;;-0.07;73.21
77799;BME280;66989;50.426;15.352;2023-04-03T05:42:06;99138.13;;;0.03;72.98
77799;BME280;66989;50.426;15.352;2023-04-03T05:44:32;99146.69;;;0.09;72.33
77799;BME280;66989;50.426;15.352;2023-04-03T05:46:58;99145.63;;;0.18;72.41
77799;BME280;66989;50.426;15.352;2023-04-03T05:49:24;99144.59;;;0.27;71.26
77799;BME280;66989;50.426;15.352;2023-04-03T05:51:51;99149.59;;;0.36;71.05
77799;BME280;66989;50.426;15.352;2023-04-03T05:54:23;99159.75;;;0.47;70.78
77799;BME280;66989;50.426;15.352;2023-04-03T05:56:50;99156.94;;;0.57;70.08
77799;BME280;66989;50.426;15.352;2023-04-03T05:59:17;99152.38;;;0.68;69.59
77799;BME280;66989;50.426;15.352;2023-04-03T06:01:42;99151.19;;;0.83;69.50
77799;BME280;66989;50.426;15.352;2023-04-03T06:04:11;99162.06;;;0.99;68.32
77799;BME280;66989;50.426;15.352;2023-04-03T06:06:50;99166.78;;;1.20;67.83
77799;BME280;66989;50.426;15.352;2023-04-03T06:09:27;99161.75;;;1.50;67.35
77799;BME280;66989;50.426;15.352;2023-04-03T06:12:03;99163.75;;;2.38;65.98
77799;BME280;66989;50.426;15.352;2023-04-03T06:14:28;99152.59;;;3.48;62.88
77799;BME280;66989;50.426;15.352;2023-04-03T06:16:54;99148.75;;;4.58;59.08
77799;BME280;66989;50.426;15.352;2023-04-03T06:19:22;99151.47;;;5.45;54.93
77799;BME280;66989;50.426;15.352;2023-04-03T06:21:48;99149.97;;;6.22;50.68
77799;BME280;66989;50.426;15.352;2023-04-03T06:24:15;99150.13;;;6.77;49.53
77799;BME280;66989;50.426;15.352;2023-04-03T06:26:41;99150.91;;;7.17;48.87
77799;BME280;66989;50.426;15.352;2023-04-03T06:29:07;99150.59;;;7.77;47.05
77799;BME280;66989;50.426;15.352;2023-04-03T06:31:33;99142.13;;;8.57;45.30
77799;BME280;66989;50.426;15.352;2023-04-03T06:34:02;99142.31;;;8.85;44.11
77799;BME280;66989;50.426;15.352;2023-04-03T06:36:28;99141.13;;;9.38;43.01
77799;BME280;66989;50.426;15.352;2023-04-03T06:38:55;99155.06;;;9.86;41.35
77799;BME280;66989;50.426;15.352;2023-04-03T06:41:21;99150.09;;;9.66;40.39
77799;BME280;66989;50.426;15.352;2023-04-03T06:43:47;99157.25;;;9.32;41.02
77799;BME280;66989;50.426;15.352;2023-04-03T06:46:17;99165.34;;;8.64;42.56
77799;BME280;66989;50.426;15.352;2023-04-03T06:48:44;99173.75;;;7.32;44.74
77799;BME280;66989;50.426;15.352;2023-04-03T06:51:17;99178.66;;;6.44;47.43
77799;BME280;66989;50.426;15.352;2023-04-03T06:53:44;99189.34;;;5.56;49.72
77799;BME280;66989;50.426;15.352;2023-04-03T06:56:11;99193.41;;;4.98;51.21
77799;BME280;66989;50.426;15.352;2023-04-03T06:58:38;99190.34;;;4.63;51.81
77799;BME280;66989;50.426;15.352;2023-04-03T07:01:05;99187.03;;;4.34;52.86
77799;BME280;66989;50.426;15.352;2023-04-03T07:03:30;99187.41;;;4.24;53.84
77799;BME280;66989;50.426;15.352;2023-04-03T07:05:56;99192.72;;;4.22;54.05
77799;BME280;66989;50.426;15.352;2023-04-03T07:08:21;99191.94;;;4.19;53.19
77799;BME280;66989;50.426;15.352;2023-04-03T07:10:48;99190.56;;;4.33;53.65
77799;BME280;66989;50.426;15.352;2023-04-03T07:13:15;99189.38;;;4.89;52.44
77799;BME280;66989;50.426;15.352;2023-04-03T07:15:40;99191.72;;;6.46;49.53
77799;BME280;66989;50.426;15.352;2023-04-03T07:18:06;99177.84;;;7.74;44.65
77799;BME280;66989;50.426;15.352;2023-04-03T07:20:34;99174.75;;;9.33;42.43
77799;BME280;66989;50.426;15.352;2023-04-03T07:23:00;99167.78;;;11.09;38.64
77799;BME280;66989;50.426;15.352;2023-04-03T07:25:27;99160.91;;;12.28;35.47
77799;BME280;66989;50.426;15.352;2023-04-03T07:27:52;99156.59;;;13.14;32.47
77799;BME280;66989;50.426;15.352;2023-04-03T07:30:21;99160.28;;;13.85;30.92
77799;BME280;66989;50.426;15.352;2023-04-03T07:32:47;99167.31;;;13.97;29.68
77799;BME280;66989;50.426;15.352;2023-04-03T07:35:12;99167.78;;;13.91;28.94
77799;BME280;66989;50.426;15.352;2023-04-03T07:37:38;99165.63;;;14.43;27.78
77799;BME280;66989;50.426;15.352;2023-04-03T07:40:04;99165.44;;;15.24;28.52
77799;BME280;66989;50.426;15.352;2023-04-03T07:42:31;99153.06;;;16.10;26.30
77799;BME280;66989;50.426;15.352;2023-04-03T07:44:56;99158.44;;;16.41;26.03
77799;BME280;66989;50.426;15.352;2023-04-03T07:47:22;99155.41;;;16.66;25.65
77799;BME280;66989;50.426;15.352;2023-04-03T07:49:47;99163.19;;;17.19;24.19
77799;BME280;66989;50.426;15.352;2023-04-03T07:52:13;99158.66;;;17.41;23.91
77799;BME280;66989;50.426;15.352;2023-04-03T07:54:40;99157.22;;;17.36;23.26
77799;BME280;66989;50.426;15.352;2023-04-03T07:57:09;99163.09;;;16.59;24.00
77799;BME280;66989;50.426;15.352;2023-04-03T07:59:34;99163.25;;;16.98;23.92
77799;BME280;66989;50.426;15.352;2023-04-03T08:02:00;99166.22;;;17.45;23.92
77799;BME280;66989;50.426;15.352;2023-04-03T08:04:26;99155.91;;;18.10;22.66
77799;BME280;66989;50.426;15.352;2023-04-03T08:06:52;99153.06;;;18.40;22.20
77799;BME280;66989;50.426;15.352;2023-04-03T08:09:18;99153.66;;;17.96;23.15
77799;BME280;66989;50.426;15.352;2023-04-03T08:11:44;99157.88;;;17.69;22.70
77799;BME280;66989;50.426;15.352;2023-04-03T08:14:10;99163.78;;;18.11;22.67
77799;BME280;66989;50.426;15.352;2023-04-03T08:16:40;99160.88;;;18.81;21.78
77799;BME280;66989;50.426;15.352;2023-04-03T08:19:06;99153.47;;;19.02;20.83
77799;BME280;66989;50.426;15.352;2023-04-03T08:21:32;99163.19;;;18.18;21.31
77799;BME280;66989;50.426;15.352;2023-04-03T08:23:57;99161.41;;;18.08;21.60
77799;BME280;66989;50.426;15.352;2023-04-03T08:26:23;99158.47;;;17.32;21.51
77799;BME280;66989;50.426;15.352;2023-04-03T08:28:48;99160.13;;;16.83;22.94
77799;BME280;66989;50.426;15.352;2023-04-03T08:31:17;99160.88;;;16.65;23.43
77799;BME280;66989;50.426;15.352;2023-04-03T08:33:45;99163.28;;;17.48;22.73
77799;BME280;66989;50.426;15.352;2023-04-03T08:36:29;99157.72;;;18.38;21.20
77799;BME280;66989;50.426;15.352;2023-04-03T08:38:55;99157.56;;;19.24;20.13
77799;BME280;66989;50.426;15.352;2023-04-03T08:41:33;99162.28;;;19.12;20.37
77799;BME280;66989;50.426;15.352;2023-04-03T08:44:17;99155.56;;;18.42;20.71
77799;BME280;66989;50.426;15.352;2023-04-03T08:47:18;99165.47;;;19.16;21.12
77799;BME280;66989;50.426;15.352;2023-04-03T08:49:49;99164.56;;;19.07;19.84
77799;BME280;66989;50.426;15.352;2023-04-03T08:52:19;99171.47;;;17.76;20.06
77799;BME280;66989;50.426;15.352;2023-04-03T08:54:57;99164.72;;;18.39;20.53
77799;BME280;66989;50.426;15.352;2023-04-03T08:57:33;99163.81;;;19.15;19.75
77799;BME280;66989;50.426;15.352;2023-04-03T09:00:04;99154.53;;;20.36;18.83
77799;BME280;66989;50.426;15.352;2023-04-03T09:02:33;99159.41;;;20.66;19.29
77799;BME280;66989;50.426;15.352;2023-04-03T09:04:59;99159.75;;;20.02;18.87
77799;BME280;66989;50.426;15.352;2023-04-03T09:07:51;99166.00;;;18.35;20.11
77799;BME280;66989;50.426;15.352;2023-04-03T09:10:20;99181.78;;;17.00;21.54
77799;BME280;66989;50.426;15.352;2023-04-03T09:12:51;99193.41;;;15.51;23.04
77799;BME280;66989;50.426;15.352;2023-04-03T09:15:23;99194.63;;;15.02;23.65
77799;BME280;66989;50.426;15.352;2023-04-03T09:18:03;99176.28;;;15.87;22.78
77799;BME280;66989;50.426;15.352;2023-04-03T09:22:58;99179.19;;;16.37;21.99
77799;BME280;66989;50.426;15.352;2023-04-03T09:25:36;99171.84;;;16.29;22.03
77799;BME280;66989;50.426;15.352;2023-04-03T09:28:03;99190.25;;;15.57;22.63
77799;BME280;66989;50.426;15.352;2023-04-03T09:30:35;99197.31;;;13.98;23.53
77799;BME280;66989;50.426;15.352;2023-04-03T09:33:01;99201.53;;;13.77;24.09
77799;BME280;66989;50.426;15.352;2023-04-03T09:35:32;99205.09;;;13.64;25.50
77799;BME280;66989;50.426;15.352;2023-04-03T09:38:14;99196.78;;;14.52;24.73
77799;BME280;66989;50.426;15.352;2023-04-03T09:41:05;99195.00;;;14.75;23.55
77799;BME280;66989;50.426;15.352;2023-04-03T09:43:33;99194.03;;;16.40;22.59
77799;BME280;66989;50.426;15.352;2023-04-03T09:46:36;99204.97;;;17.49;21.74
77799;BME280;66989;50.426;15.352;2023-04-03T09:49:04;99201.72;;;18.05;20.40
77799;BME280;66989;50.426;15.352;2023-04-03T09:51:31;99202.81;;;19.08;19.74
77799;BME280;66989;50.426;15.352;2023-04-03T09:53:56;99191.50;;;20.58;19.10
77799;BME280;66989;50.426;15.352;2023-04-03T09:56:25;99191.22;;;21.13;17.82
77799;BME280;66989;50.426;15.352;2023-04-03T09:59:14;99188.19;;;20.03;17.89
77799;BME280;66989;50.426;15.352;2023-04-03T10:01:43;99188.59;;;20.95;17.67
77799;BME280;66989;50.426;15.352;2023-04-03T10:04:22;99179.53;;;21.65;17.25
77799;BME280;66989;50.426;15.352;2023-04-03T10:06:52;99192.47;;;21.01;18.03
77799;BME280;66989;50.426;15.352;2023-04-03T10:09:26;99179.09;;;22.10;17.48
77799;BME280;66989;50.426;15.352;2023-04-03T10:12:12;99183.44;;;20.32;17.46
77799;BME280;66989;50.426;15.352;2023-04-03T10:14:57;99173.56;;;20.51;17.58
77799;BME280;66989;50.426;15.352;2023-04-03T10:20:22;99173.50;;;21.79;17.01
77799;BME280;66989;50.426;15.352;2023-04-03T10:28:25;99169.56;;;24.36;14.63
77799;BME280;66989;50.426;15.352;2023-04-03T10:34:01;99170.47;;;21.66;17.22
77799;BME280;66989;50.426;15.352;2023-04-03T10:36:50;99169.22;;;22.68;16.11
77799;BME280;66989;50.426;15.352;2023-04-03T10:42:38;99163.31;;;21.40;17.28
77799;BME280;66989;50.426;15.352;2023-04-03T10:48:03;99177.34;;;18.76;18.50
77799;BME280;66989;50.426;15.352;2023-04-03T10:56:49;99179.44;;;17.56;20.80
77799;BME280;66989;50.426;15.352;2023-04-03T10:59:37;99164.63;;;17.73;21.04
77799;BME280;66989;50.426;15.352;2023-04-03T11:02:34;99161.31;;;19.59;19.73
77799;BME280;66989;50.426;15.352;2023-04-03T11:07:47;99172.44;;;17.65;21.20
77799;BME280;66989;50.426;15.352;2023-04-03T11:10:18;99175.09;;;17.05;22.21
77799;BME280;66989;50.426;15.352;2023-04-03T11:12:52;99163.22;;;17.98;20.93
77799;BME280;66989;50.426;15.352;2023-04-03T11:15:20;99166.25;;;18.52;19.89
77799;BME280;66989;50.426;15.352;2023-04-03T11:18:08;99155.34;;;19.47;20.55
77799;BME280;66989;50.426;15.352;2023-04-03T11:20:37;99144.03;;;20.68;18.99
77799;BME280;66989;50.426;15.352;2023-04-03T11:23:28;99140.78;;;21.59;17.42
77799;BME280;66989;50.426;15.352;2023-04-03T11:26:06;99147.50;;;20.61;17.81
77799;BME280;66989;50.426;15.352;2023-04-03T11:28:39;99134.28;;;22.02;17.06
77799;BME280;66989;50.426;15.352;2023-04-03T11:31:27;99134.75;;;21.73;17.73
77799;BME280;66989;50.426;15.352;2023-04-03T11:36:50;99163.31;;;17.58;20.94
77799;BME280;66989;50.426;15.352;2023-04-03T11:39:28;99152.25;;;17.13;21.53
77799;BME280;66989;50.426;15.352;2023-04-03T11:50:50;99156.72;;;15.77;22.80
77799;BME280;66989;50.426;15.352;2023-04-03T11:53:39;99150.97;;;17.07;22.31
77799;BME280;66989;50.426;15.352;2023-04-03T12:01:54;99148.06;;;17.20;21.57
77799;BME280;66989;50.426;15.352;2023-04-03T12:04:22;99151.66;;;14.63;25.34
77799;BME280;66989;50.426;15.352;2023-04-03T12:09:35;99154.63;;;13.66;26.79
77799;BME280;66989;50.426;15.352;2023-04-03T12:12:38;99158.00;;;13.07;27.47
77799;BME280;66989;50.426;15.352;2023-04-03T12:15:25;99159.97;;;12.67;28.28
77799;BME280;66989;50.426;15.352;2023-04-03T12:17:51;99159.44;;;11.97;28.61
77799;BME280;66989;50.426;15.352;2023-04-03T12:20:56;99160.13;;;11.19;29.62
77799;BME280;66989;50.426;15.352;2023-04-03T12:23:34;99172.91;;;10.55;30.71
77799;BME280;66989;50.426;15.352;2023-04-03T12:26:21;99170.66;;;10.64;30.61
77799;BME280;66989;50.426;15.352;2023-04-03T12:28:48;99165.25;;;11.08;30.61
77799;BME280;66989;50.426;15.352;2023-04-03T12:31:15;99156.53;;;10.79;31.59
77799;BME280;66989;50.426;15.352;2023-04-03T12:34:13;99153.91;;;9.90;32.72
77799;BME280;66989;50.426;15.352;2023-04-03T12:36:48;99158.88;;;9.50;33.51
77799;BME280;66989;50.426;15.352;2023-04-03T12:39:40;99159.31;;;8.95;34.58
77799;BME280;66989;50.426;15.352;2023-04-03T12:42:35;99162.69;;;8.48;35.30
77799;BME280;66989;50.426;15.352;2023-04-03T12:45:20;99164.19;;;8.37;36.04
77799;BME280;66989;50.426;15.352;2023-04-03T12:47:48;99157.16;;;8.37;34.84
77799;BME280;66989;50.426;15.352;2023-04-03T12:50:32;99163.34;;;8.19;35.51
77799;BME280;66989;50.426;15.352;2023-04-03T12:53:06;99162.19;;;8.24;34.68
77799;BME280;66989;50.426;15.352;2023-04-03T12:55:32;99155.75;;;8.30;34.50
77799;BME280;66989;50.426;15.352;2023-04-03T12:58:17;99165.66;;;9.23;33.26
77799;BME280;66989;50.426;15.352;2023-04-03T13:00:58;99158.91;;;9.80;32.28
77799;BME280;66989;50.426;15.352;2023-04-03T13:03:25;99149.97;;;10.27;32.35
77799;BME280;66989;50.426;15.352;2023-04-03T13:05:59;99144.22;;;11.48;30.67
77799;BME280;66989;50.426;15.352;2023-04-03T13:08:25;99151.31;;;11.33;30.29
77799;BME280;66989;50.426;15.352;2023-04-03T13:11:04;99149.34;;;10.81;30.95
77799;BME280;66989;50.426;15.352;2023-04-03T13:13:33;99145.00;;;10.94;30.99
77799;BME280;66989;50.426;15.352;2023-04-03T13:16:08;99146.78;;;10.37;31.39
77799;BME280;66989;50.426;15.352;2023-04-03T13:18:35;99147.94;;;10.02;31.54
77799;BME280;66989;50.426;15.352;2023-04-03T13:21:07;99150.31;;;9.77;31.63
77799;BME280;66989;50.426;15.352;2023-04-03T13:23:36;99151.00;;;9.80;31.57
77799;BME280;66989;50.426;15.352;2023-04-03T13:26:05;99147.44;;;11.38;29.55
77799;BME280;66989;50.426;15.352;2023-04-03T13:28:33;99141.53;;;12.91;30.03
77799;BME280;66989;50.426;15.352;2023-04-03T13:31:06;99128.25;;;14.80;25.56
77799;BME280;66989;50.426;15.352;2023-04-03T13:33:36;99113.59;;;16.36;23.42
77799;BME280;66989;50.426;15.352;2023-04-03T13:36:41;99112.63;;;17.48;22.38
77799;BME280;66989;50.426;15.352;2023-04-03T13:41:48;99115.16;;;16.39;23.22
77799;BME280;66989;50.426;15.352;2023-04-03T13:44:16;99120.53;;;14.88;24.51
77799;BME280;66989;50.426;15.352;2023-04-03T13:46:42;99133.75;;;13.13;26.32
77799;BME280;66989;50.426;15.352;2023-04-03T13:51:51;99145.94;;;11.34;29.61
77799;BME280;66989;50.426;15.352;2023-04-03T13:54:33;99134.22;;;11.65;30.16
77799;BME280;66989;50.426;15.352;2023-04-03T13:57:00;99124.72;;;12.54;29.26
77799;BME280;66989;50.426;15.352;2023-04-03T13:59:31;99122.53;;;13.58;28.50
77799;BME280;66989;50.426;15.352;2023-04-03T14:04:30;99122.09;;;13.40;27.63
77799;BME280;66989;50.426;15.352;2023-04-03T14:06:57;99126.63;;;13.14;28.75
77799;BME280;66989;50.426;15.352;2023-04-03T14:09:25;99126.66;;;13.38;28.30